Details From YGLA - Gladstone
To YBHM - Hamilton I.
Flight Number -
Tags decoded
Created
Modified
Stats Distance 246 nm / 455 km
Max Altitude 0 ft / 0 m
Waypoints 2
Social Downloads 0
Likes 0
Share VATSIM

Download

Looking for another format? Having issues loading an existing format? Contact us
Advertisement - Login to hide

Notes

Requested: YGLA EGUGO Y32 ELDEK YBHM Unmatched points: EGUGO ELDEK

Route

YGLA YBHM

ID Type Via Altitude Latitude Longitude Leg Dist Tot Dist Heading (true) Name
O YGLA APT - 0 ft / 0 m -23.86947˚ 151.22448˚ - 0 nm - Gladstone
O YBHM APT - 0 ft / 0 m -20.35748˚ 148.95164˚ 245 nm 245 nm 329° / 329° Hamilton I.

Altitude Profile

Advertisement - Login to hide

Weather


0- 5 10 15 20 25 30 35+ Temperature / ° C

Clouds and Precipitation
Forecast for 2017-12-15 18:00 UTC. Updated an hour ago

Ground ~20,000 ft ~40,000 ft Winds

YGLA

Details ICAO YGLA (GLT)
Name Gladstone
Region Australia
Timezone Australia/Brisbane (UTC+10.0)
Stats Elevation 64 ft / 20 m (AMSL)
Location -23.869471° 151.224483°
Runways 1
Magnetic Variation 9.524° E

METAR

YGLA 151400Z AUTO 14006KT 9999 // NCD 24/20 Q1012

Decode

TAF

TAF YGLA 151052Z 1512/1524 09008KT 9999 FEW025 FM151500 19006KT 9999 SCT025 FM152300 08010KT 9999 FEW040

Decode

Departure Runways

ID Width Length Bearing (true) Bearing (mag) Surface Threshold Offset Overrun Length
10 98 ft / 30 m 5,354 ft / 1,632 m 110.20° 100.68° Asphalt 0 ft / 0 m 89 ft / 27 m
28 98 ft / 30 m 5,354 ft / 1,632 m 290.20° 280.68° Asphalt 322 ft / 98 m 194 ft / 59 m

YBHM

Details ICAO YBHM (HTI)
Name Hamilton I.
Region Australia
Timezone Australia/Lindeman (UTC+10.0)
Stats Elevation 14 ft / 4 m (AMSL)
Location -20.357481° 148.951639°
Runways 1
Magnetic Variation 8.157° E

METAR

YBHM 151400Z AUTO 12012KT 9999 // SCT021 BKN027 26/22 Q1011

Decode

TAF

TAF YBHM 150508Z 1506/1518 12015KT 9999 SCT035 FM150900 12014KT 9999 SCT025 FM151600 13012KT 9999 -SHRA SCT015 SCT035

Decode

Destination Runways

ID Width Length Bearing (true) Bearing (mag) Surface Threshold Offset Overrun Length
14 148 ft / 45 m 5,792 ft / 1,765 m 143.04° 134.88° Asphalt 0 ft / 0 m 0 ft / 0 m
32 148 ft / 45 m 5,792 ft / 1,765 m 323.03° 314.87° Asphalt 0 ft / 0 m 0 ft / 0 m

Popular Alternatives